| time (UTC) | temp C | wind direction | speed KPH | gust KPH | rain 1hr cm | rain 24hr cm | rain mn cm | humidity % | barometer mb |
| 20260509212827 | 16 | 142 | 1.6 | 4.8 | 0.00 | 0.00 | 0.00 | 73 | 1005.7 |
| 20260509212327 | 16 | 79 | 1.6 | 3.2 | 0.00 | 0.00 | 0.00 | 74 | 1006.0 |
| 20260509211827 | 16 | 217 | 1.6 | 3.2 | 0.00 | 0.00 | 0.00 | 72 | 1006.3 |
| 20260509211327 | 16 | 177 | 3.2 | 6.4 | 0.00 | 0.00 | 0.00 | 72 | 1006.3 |
| 20260509210827 | 17 | 143 | 1.6 | 3.2 | 0.00 | 0.00 | 0.00 | 67 | 1006.3 |
| 20260509210327 | 17 | 291 | 1.6 | 4.8 | 0.00 | 0.00 | 0.00 | 67 | 1006.3 |
| 20260509205828 | 17 | 196 | 1.6 | 3.2 | 0.00 | 0.00 | 0.00 | 67 | 1005.9 |
| 20260509205327 | 17 | 137 | 3.2 | 6.4 | 0.00 | 0.00 | 0.00 | 66 | 1005.8 |
| 20260509204827 | 18 | 210 | 3.2 | 6.4 | 0.00 | 0.00 | 0.00 | 66 | 1006.0 |
| 20260509204327 | 18 | 284 | 3.2 | 8.0 | 0.00 | 0.00 | 0.00 | 66 | 1005.7 |
| 20260509203827 | 17 | 141 | 3.2 | 8.0 | 0.00 | 0.00 | 0.00 | 66 | 1005.6 |
| 20260509203327 | 17 | 156 | 1.6 | 3.2 | 0.00 | 0.00 | 0.00 | 67 | 1005.9 |
| 20260509202827 | 17 | 341 | 1.6 | 3.2 | 0.00 | 0.00 | 0.00 | 67 | 1006.0 |
| 20260509202328 | 17 | 233 | 6.4 | 14.5 | 0.00 | 0.00 | 0.00 | 67 | 1006.0 |
| 20260509201827 | 17 | 201 | 3.2 | 4.8 | 0.00 | 0.00 | 0.00 | 67 | 1006.2 |
| 20260509201327 | 17 | 298 | 3.2 | 6.4 | 0.00 | 0.00 | 0.00 | 68 | 1006.2 |
| 20260509200827 | 17 | 79 | 3.2 | 8.0 | 0.00 | 0.00 | 0.00 | 69 | 1006.0 |
| 20260509200327 | 17 | 358 | 3.2 | 6.4 | 0.00 | 0.00 | 0.00 | 68 | 1005.6 |
| 20260509195827 | 17 | 287 | 1.6 | 4.8 | 0.00 | 0.00 | 0.00 | 69 | 1006.0 |
| 20260509195327 | 18 | 296 | 1.6 | 3.2 | 0.00 | 0.00 | 0.00 | 67 | 1006.4 |
| 20260509194828 | 18 | 236 | 1.6 | 4.8 | 0.00 | 0.00 | 0.00 | 67 | 1006.4 |
| 20260509194328 | 18 | 173 | 3.2 | 4.8 | 0.00 | 0.00 | 0.00 | 64 | 1006.3 |
| 20260509193830 | 19 | 251 | 3.2 | 9.7 | 0.00 | 0.00 | 0.00 | 63 | 1006.3 |
| 20260509193327 | 19 | 251 | 3.2 | 6.4 | 0.00 | 0.00 | 0.00 | 62 | 1006.1 |
| 20260509192827 | 19 | 281 | 3.2 | 8.0 | 0.00 | 0.00 | 0.00 | 64 | 1005.8 |
| 20260509192328 | 18 | 250 | 1.6 | 4.8 | 0.00 | 0.00 | 0.00 | 66 | 1005.7 |
| 20260509191827 | 17 | 241 | 1.6 | 3.2 | 0.00 | 0.00 | 0.00 | 68 | 1005.8 |
| 20260509191328 | 17 | 293 | 3.2 | 8.0 | 0.00 | 0.00 | 0.00 | 72 | 1005.8 |
| 20260509190827 | 16 | 292 | 1.6 | 3.2 | 0.00 | 0.00 | 0.00 | 72 | 1006.3 |
| 20260509190327 | 16 | 249 | 3.2 | 6.4 | 0.00 | 0.00 | 0.00 | 71 | 1006.7 |
| 20260509185827 | 16 | 175 | 1.6 | 3.2 | 0.00 | 0.00 | 0.00 | 72 | 1006.7 |
| 20260509185327 | 16 | 302 | 1.6 | 4.8 | 0.00 | 0.00 | 0.00 | 71 | 1006.8 |
| 20260509184828 | 16 | 183 | 3.2 | 6.4 | 0.00 | 0.00 | 0.00 | 71 | 1006.6 |
| 20260509184327 | 16 | 73 | 1.6 | 3.2 | 0.00 | 0.00 | 0.00 | 71 | 1006.3 |
| 20260509183827 | 16 | 205 | 0.0 | 4.8 | 0.00 | 0.00 | 0.00 | 73 | 1006.6 |
| 20260509183327 | 16 | 135 | 1.6 | 3.2 | 0.00 | 0.00 | 0.00 | 73 | 1006.5 |
| 20260509182827 | 15 | 164 | 1.6 | 4.8 | 0.00 | 0.00 | 0.00 | 74 | 1006.9 |
| 20260509182327 | 15 | 249 | 1.6 | 3.2 | 0.00 | 0.00 | 0.00 | 75 | 1006.9 |
| 20260509181827 | 15 | 349 | 1.6 | 1.6 | 0.00 | 0.00 | 0.00 | 75 | 1007.0 |
| 20260509181328 | 16 | 278 | 1.6 | 4.8 | 0.00 | 0.00 | 0.00 | 75 | 1006.8 |
| 20260509180828 | 15 | 193 | 1.6 | 3.2 | 0.00 | 0.00 | 0.00 | 74 | 1006.6 |
| 20260509180328 | 15 | 330 | 1.6 | 3.2 | 0.00 | 0.00 | 0.00 | 77 | 1006.5 |
| 20260509175827 | 15 | 134 | 0.0 | 1.6 | 0.00 | 0.00 | 0.00 | 77 | 1006.5 |
| 20260509175328 | 14 | 9 | 3.2 | 3.2 | 0.00 | 0.00 | 0.00 | 78 | 1006.6 |
| 20260509174828 | 13 | 335 | 1.6 | 3.2 | 0.00 | 0.00 | 0.00 | 77 | 1006.7 |
| 20260509174327 | 13 | 91 | 0.0 | 3.2 | 0.00 | 0.00 | 0.00 | 80 | 1006.9 |
| 20260509173827 | 13 | 328 | 1.6 | 1.6 | 0.00 | 0.00 | 0.00 | 80 | 1007.0 |
| 20260509173327 | 13 | 87 | 1.6 | 1.6 | 0.00 | 0.00 | 0.00 | 81 | 1007.0 |
| 20260509172827 | 13 | 18 | 1.6 | 3.2 | 0.00 | 0.00 | 0.00 | 80 | 1007.1 |
| 20260509172327 | 13 | 273 | 1.6 | 3.2 | 0.00 | 0.00 | 0.00 | 80 | 1007.1 |
| 20260509171827 | 13 | 92 | 4.8 | 9.7 | 0.00 | 0.00 | 0.00 | 80 | 1007.1 |
| 20260509171327 | 13 | 291 | 0.0 | 0.0 | 0.00 | 0.00 | 0.00 | 82 | 1007.2 |
| 20260509170827 | 12 | 341 | 1.6 | 1.6 | 0.00 | 0.00 | 0.00 | 82 | 1007.2 |
| 20260509170327 | 12 | 137 | 1.6 | 1.6 | 0.00 | 0.00 | 0.00 | 83 | 1007.3 |
| 20260509165827 | 12 | 248 | 1.6 | 3.2 | 0.00 | 0.00 | 0.00 | 85 | 1007.2 |
| 20260509165327 | 12 | 101 | 1.6 | 1.6 | 0.00 | 0.00 | 0.00 | 86 | 1007.4 |
| 20260509164827 | 12 | 114 | 0.0 | 1.6 | 0.00 | 0.00 | 0.00 | 86 | 1007.5 |
| 20260509164327 | 12 | 337 | 1.6 | 1.6 | 0.00 | 0.00 | 0.00 | 86 | 1007.6 |
| 20260509163827 | 12 | 86 | 0.0 | 0.0 | 0.00 | 0.00 | 0.00 | 86 | 1007.6 |
| 20260509163328 | 12 | 259 | 1.6 | 3.2 | 0.00 | 0.00 | 0.00 | 85 | 1007.7 |
| 20260509162827 | 12 | 328 | 0.0 | 1.6 | 0.00 | 0.00 | 0.00 | 85 | 1007.7 |
| 20260509162327 | 12 | 0 | 0.0 | 0.0 | 0.00 | 0.00 | 0.00 | 86 | 1007.8 |
| 20260509161828 | 12 | 154 | 0.0 | 0.0 | 0.00 | 0.00 | 0.00 | 86 | 1007.8 |
| 20260509161327 | 12 | 6 | 0.0 | 1.6 | 0.00 | 0.00 | 0.00 | 86 | 1007.9 |
| 20260509160827 | 12 | 0 | 0.0 | 0.0 | 0.00 | 0.00 | 0.00 | 87 | 1008.0 |
| 20260509160327 | 12 | 296 | 0.0 | 0.0 | 0.00 | 0.00 | 0.00 | 86 | 1008.1 |
| 20260509155827 | 12 | 36 | 0.0 | 1.6 | 0.00 | 0.00 | 0.00 | 86 | 1008.1 |
| 20260509154936 | 12 | 297 | 0.0 | 0.0 | 0.00 | 0.00 | 0.00 | 86 | 1008.2 |
| 20260509154328 | 12 | 266 | 1.6 | 1.6 | 0.00 | 0.00 | 0.00 | 87 | 1008.3 |
| 20260509153827 | 12 | 0 | 0.0 | 0.0 | 0.00 | 0.00 | 0.00 | 86 | 1008.3 |
| 20260509153327 | 12 | 285 | 0.0 | 0.0 | 0.00 | 0.00 | 0.00 | 86 | 1008.3 |
| 20260509152828 | 12 | 74 | 0.0 | 0.0 | 0.00 | 0.00 | 0.00 | 85 | 1008.4 |
| 20260509152328 | 12 | 0 | 0.0 | 0.0 | 0.00 | 0.00 | 0.00 | 84 | 1008.5 |
| 20260509151828 | 12 | 352 | 0.0 | 0.0 | 0.00 | 0.00 | 0.00 | 85 | 1008.6 |
| 20260509151327 | 12 | 301 | 1.6 | 1.6 | 0.00 | 0.00 | 0.00 | 85 | 1008.7 |
| 20260509150827 | 12 | 342 | 1.6 | 1.6 | 0.00 | 0.00 | 0.00 | 85 | 1008.6 |
| 20260509150327 | 12 | 46 | 0.0 | 0.0 | 0.00 | 0.00 | 0.00 | 83 | 1008.6 |
| 20260509145828 | 12 | 268 | 0.0 | 1.6 | 0.00 | 0.00 | 0.00 | 84 | 1008.6 |
| 20260509145328 | 12 | 266 | 0.0 | 0.0 | 0.00 | 0.00 | 0.00 | 84 | 1008.5 |
| 20260509144827 | 12 | 0 | 0.0 | 0.0 | 0.00 | 0.00 | 0.00 | 83 | 1008.4 |
| 20260509144327 | 12 | 110 | 1.6 | 3.2 | 0.00 | 0.00 | 0.00 | 84 | 1008.3 |
| 20260509143827 | 12 | 120 | 1.6 | 1.6 | 0.00 | 0.00 | 0.00 | 85 | 1008.2 |
| 20260509143327 | 12 | 83 | 3.2 | 4.8 | 0.00 | 0.00 | 0.00 | 85 | 1008.1 |
| 20260509142827 | 12 | 0 | 1.6 | 3.2 | 0.00 | 0.00 | 0.00 | 86 | 1008.2 |
| 20260509142327 | 11 | 137 | 3.2 | 3.2 | 0.00 | 0.00 | 0.00 | 87 | 1008.1 |
| 20260509141827 | 11 | 220 | 1.6 | 1.6 | 0.00 | 0.00 | 0.00 | 88 | 1008.2 |
| 20260509141329 | 11 | 51 | 3.2 | 3.2 | 0.00 | 0.00 | 0.00 | 88 | 1008.3 |
| 20260509140827 | 10 | 10 | 1.6 | 3.2 | 0.00 | 0.00 | 0.00 | 88 | 1008.5 |
| 20260509140327 | 10 | 248 | 0.0 | 1.6 | 0.00 | 0.00 | 0.00 | 90 | 1008.6 |
| 20260509135827 | 10 | 11 | 1.6 | 1.6 | 0.00 | 0.00 | 0.00 | 88 | 1008.7 |
| 20260509135328 | 10 | 318 | 0.0 | 0.0 | 0.00 | 0.00 | 0.00 | 87 | 1008.8 |
| 20260509134830 | 10 | 324 | 0.0 | 1.6 | 0.00 | 0.00 | 0.00 | 87 | 1009.0 |
| 20260509134328 | 10 | 72 | 0.0 | 0.0 | 0.00 | 0.00 | 0.00 | 88 | 1009.1 |
| 20260509133828 | 10 | 252 | 1.6 | 1.6 | 0.00 | 0.00 | 0.00 | 85 | 1009.1 |
| 20260509133327 | 10 | 261 | 1.6 | 1.6 | 0.00 | 0.00 | 0.00 | 87 | 1009.0 |
| 20260509132827 | 10 | 0 | 0.0 | 0.0 | 0.00 | 0.00 | 0.00 | 90 | 1008.8 |
| 20260509132327 | 10 | 115 | 1.6 | 1.6 | 0.00 | 0.00 | 0.00 | 91 | 1008.8 |
| 20260509131827 | 10 | 319 | 0.0 | 1.6 | 0.00 | 0.00 | 0.00 | 90 | 1008.9 |
| 20260509131327 | 10 | 342 | 1.6 | 1.6 | 0.00 | 0.00 | 0.00 | 90 | 1008.9 |
| 20260509130828 | 10 | 228 | 1.6 | 1.6 | 0.00 | 0.00 | 0.00 | 90 | 1008.8 |
| 20260509130328 | 9 | 91 | 1.6 | 1.6 | 0.00 | 0.00 | 0.00 | 91 | 1008.7 |
| 20260509125827 | 9 | 287 | 1.6 | 1.6 | 0.00 | 0.00 | 0.00 | 91 | 1008.7 |
| 20260509125327 | 9 | 260 | 1.6 | 3.2 | 0.00 | 0.00 | 0.00 | 91 | 1008.7 |
| 20260509124827 | 9 | 122 | 3.2 | 3.2 | 0.00 | 0.00 | 0.00 | 91 | 1008.7 |
| 20260509124327 | 8 | 107 | 1.6 | 1.6 | 0.00 | 0.00 | 0.00 | 91 | 1008.6 |
| 20260509123827 | 8 | 260 | 0.0 | 1.6 | 0.00 | 0.00 | 0.00 | 91 | 1008.7 |
| 20260509123327 | 8 | 31 | 0.0 | 1.6 | 0.00 | 0.00 | 0.00 | 91 | 1008.8 |
| 20260509122827 | 8 | 54 | 0.0 | 1.6 | 0.00 | 0.00 | 0.00 | 91 | 1008.8 |
| 20260509122327 | 7 | 96 | 0.0 | 0.0 | 0.00 | 0.00 | 0.00 | 91 | 1008.9 |
| 20260509121827 | 7 | 137 | 1.6 | 1.6 | 0.00 | 0.00 | 0.00 | 91 | 1009.0 |
| 20260509121327 | 6 | 243 | 3.2 | 3.2 | 0.00 | 0.00 | 0.00 | 90 | 1009.2 |
| 20260509120828 | 6 | 271 | 1.6 | 3.2 | 0.00 | 0.00 | 0.00 | 88 | 1009.3 |
| 20260509120327 | 6 | 65 | 0.0 | 1.6 | 0.00 | 0.00 | 0.00 | 88 | 1009.3 |
| 20260509115827 | 6 | 0 | 0.0 | 0.0 | 0.00 | 0.00 | 0.00 | 88 | 1009.4 |
| 20260509115328 | 6 | 202 | 1.6 | 1.6 | 0.00 | 0.00 | 0.00 | 88 | 1009.4 |
| 20260509114827 | 6 | 60 | 0.0 | 1.6 | 0.00 | 0.00 | 0.00 | 88 | 1009.4 |
| 20260509114327 | 6 | 258 | 0.0 | 0.0 | 0.00 | 0.00 | 0.00 | 87 | 1009.5 |
| 20260509113827 | 6 | 272 | 1.6 | 1.6 | 0.00 | 0.00 | 0.00 | 87 | 1009.5 |
| 20260509113327 | 6 | 310 | 0.0 | 0.0 | 0.00 | 0.00 | 0.00 | 86 | 1009.5 |
| 20260509112827 | 6 | 0 | 0.0 | 0.0 | 0.00 | 0.00 | 0.00 | 86 | 1009.5 |
| 20260509112327 | 6 | 48 | 1.6 | 1.6 | 0.00 | 0.00 | 0.00 | 86 | 1009.4 |
| 20260509111827 | 6 | 294 | 1.6 | 1.6 | 0.00 | 0.00 | 0.00 | 87 | 1009.3 |
| 20260509111327 | 6 | 259 | 1.6 | 3.2 | 0.00 | 0.00 | 0.00 | 87 | 1009.3 |
| 20260509110827 | 6 | 242 | 1.6 | 3.2 | 0.00 | 0.00 | 0.00 | 87 | 1009.4 |
| 20260509110327 | 6 | 274 | 1.6 | 1.6 | 0.00 | 0.00 | 0.00 | 87 | 1009.4 |
| 20260509105827 | 6 | 77 | 0.0 | 0.0 | 0.00 | 0.00 | 0.00 | 86 | 1009.4 |
| 20260509105327 | 6 | 103 | 0.0 | 1.6 | 0.00 | 0.00 | 0.00 | 86 | 1009.5 |
| 20260509104827 | 6 | 28 | 1.6 | 3.2 | 0.00 | 0.00 | 0.00 | 87 | 1009.5 |
| 20260509104328 | 5 | 52 | 0.0 | 1.6 | 0.00 | 0.00 | 0.00 | 86 | 1009.4 |
| 20260509103827 | 5 | 44 | 0.0 | 1.6 | 0.00 | 0.00 | 0.00 | 86 | 1009.4 |
| 20260509103327 | 5 | 236 | 1.6 | 1.6 | 0.00 | 0.00 | 0.00 | 85 | 1009.4 |
| 20260509102827 | 5 | 238 | 1.6 | 3.2 | 0.00 | 0.00 | 0.00 | 86 | 1009.4 |
| 20260509102332 | 5 | 267 | 1.6 | 3.2 | 0.00 | 0.00 | 0.00 | 87 | 1009.5 |
| 20260509101829 | 5 | 256 | 0.0 | 1.6 | 0.00 | 0.00 | 0.00 | 87 | 1009.6 |
| 20260509101327 | 5 | 51 | 0.0 | 1.6 | 0.00 | 0.00 | 0.00 | 87 | 1009.5 |
| 20260509100827 | 5 | 276 | 0.0 | 1.6 | 0.00 | 0.00 | 0.00 | 87 | 1009.5 |
| 20260509100328 | 5 | 257 | 1.6 | 3.2 | 0.00 | 0.00 | 0.00 | 87 | 1009.4 |
| 20260509095827 | 5 | 252 | 1.6 | 3.2 | 0.00 | 0.00 | 0.00 | 86 | 1009.3 |
| 20260509095327 | 5 | 260 | 1.6 | 3.2 | 0.00 | 0.00 | 0.00 | 84 | 1009.3 |
| 20260509094827 | 5 | 241 | 1.6 | 3.2 | 0.00 | 0.00 | 0.00 | 86 | 1009.3 |
| 20260509094327 | 5 | 271 | 1.6 | 3.2 | 0.00 | 0.00 | 0.00 | 86 | 1009.3 |
| 20260509093827 | 5 | 319 | 1.6 | 3.2 | 0.00 | 0.00 | 0.00 | 85 | 1009.3 |
| 20260509093327 | 5 | 48 | 1.6 | 3.2 | 0.00 | 0.00 | 0.00 | 85 | 1009.4 |
| 20260509092827 | 5 | 175 | 0.0 | 0.0 | 0.00 | 0.00 | 0.00 | 86 | 1009.4 |
| 20260509092327 | 5 | 342 | 0.0 | 1.6 | 0.00 | 0.00 | 0.00 | 86 | 1009.5 |
| 20260509091828 | 5 | 119 | 0.0 | 1.6 | 0.00 | 0.00 | 0.00 | 86 | 1009.4 |
| 20260509091327 | 5 | 270 | 1.6 | 3.2 | 0.00 | 0.00 | 0.00 | 85 | 1009.4 |
| 20260509090828 | 5 | 31 | 0.0 | 1.6 | 0.00 | 0.00 | 0.00 | 83 | 1009.5 |
| 20260509090327 | 5 | 124 | 0.0 | 1.6 | 0.00 | 0.00 | 0.00 | 86 | 1009.6 |
| 20260509085827 | 5 | 298 | 0.0 | 1.6 | 0.00 | 0.00 | 0.00 | 87 | 1009.8 |
| 20260509085328 | 4 | 264 | 1.6 | 3.2 | 0.00 | 0.00 | 0.00 | 87 | 1009.8 |
| 20260509084827 | 4 | 19 | 0.0 | 0.0 | 0.00 | 0.00 | 0.00 | 86 | 1009.9 |
| 20260509084327 | 4 | 264 | 1.6 | 3.2 | 0.00 | 0.00 | 0.00 | 87 | 1009.9 |
| 20260509083827 | 4 | 246 | 1.6 | 3.2 | 0.00 | 0.00 | 0.00 | 86 | 1010.0 |
| 20260509083327 | 4 | 263 | 0.0 | 1.6 | 0.00 | 0.00 | 0.00 | 86 | 1010.0 |
| 20260509082827 | 4 | 264 | 1.6 | 3.2 | 0.00 | 0.00 | 0.00 | 86 | 1010.1 |
| 20260509082327 | 4 | 267 | 0.0 | 1.6 | 0.00 | 0.00 | 0.00 | 85 | 1010.2 |
| 20260509081827 | 4 | 251 | 1.6 | 1.6 | 0.00 | 0.00 | 0.00 | 86 | 1010.2 |
| 20260509081327 | 4 | 247 | 1.6 | 3.2 | 0.00 | 0.00 | 0.00 | 86 | 1010.2 |
| 20260509080828 | 4 | 323 | 0.0 | 1.6 | 0.00 | 0.00 | 0.00 | 84 | 1010.3 |
| 20260509080327 | 5 | 264 | 0.0 | 1.6 | 0.00 | 0.00 | 0.00 | 83 | 1010.5 |
| 20260509075827 | 5 | 271 | 0.0 | 1.6 | 0.00 | 0.00 | 0.00 | 83 | 1010.5 |
| 20260509075327 | 5 | 244 | 0.0 | 1.6 | 0.00 | 0.00 | 0.00 | 83 | 1010.5 |
| 20260509074828 | 5 | 354 | 0.0 | 1.6 | 0.00 | 0.00 | 0.00 | 83 | 1010.5 |
| 20260509074328 | 5 | 311 | 0.0 | 0.0 | 0.00 | 0.00 | 0.00 | 83 | 1010.4 |
| 20260509073827 | 5 | 232 | 0.0 | 1.6 | 0.00 | 0.00 | 0.00 | 83 | 1010.3 |
| 20260509073327 | 5 | 262 | 1.6 | 3.2 | 0.00 | 0.00 | 0.00 | 84 | 1010.4 |
| 20260509072827 | 5 | 317 | 0.0 | 1.6 | 0.00 | 0.00 | 0.00 | 83 | 1010.3 |
| 20260509072327 | 5 | 78 | 3.2 | 6.4 | 0.00 | 0.00 | 0.00 | 83 | 1010.2 |
| 20260509071827 | 5 | 31 | 0.0 | 1.6 | 0.00 | 0.00 | 0.00 | 85 | 1010.2 |
| 20260509071327 | 5 | 39 | 0.0 | 1.6 | 0.00 | 0.00 | 0.00 | 85 | 1010.2 |
| 20260509070828 | 5 | 84 | 1.6 | 1.6 | 0.00 | 0.00 | 0.00 | 85 | 1010.1 |
| 20260509070327 | 5 | 59 | 0.0 | 1.6 | 0.00 | 0.00 | 0.00 | 86 | 1010.1 |
| 20260509065827 | 4 | 113 | 3.2 | 3.2 | 0.00 | 0.00 | 0.00 | 86 | 1010.3 |
| 20260509065327 | 5 | 297 | 1.6 | 3.2 | 0.00 | 0.00 | 0.00 | 86 | 1010.5 |
| 20260509064828 | 5 | 91 | 0.0 | 1.6 | 0.00 | 0.00 | 0.00 | 85 | 1010.4 |
| 20260509064327 | 4 | 276 | 1.6 | 3.2 | 0.00 | 0.00 | 0.00 | 86 | 1010.5 |
| 20260509063827 | 4 | 143 | 1.6 | 1.6 | 0.00 | 0.00 | 0.00 | 86 | 1010.5 |
| 20260509063327 | 4 | 267 | 3.2 | 4.8 | 0.00 | 0.00 | 0.00 | 86 | 1010.7 |
| 20260509062828 | 5 | 307 | 0.0 | 3.2 | 0.00 | 0.00 | 0.00 | 85 | 1010.8 |
| 20260509062327 | 5 | 274 | 1.6 | 3.2 | 0.00 | 0.00 | 0.00 | 85 | 1010.8 |
| 20260509061827 | 5 | 138 | 1.6 | 3.2 | 0.00 | 0.00 | 0.00 | 86 | 1010.8 |
| 20260509061329 | 5 | 263 | 1.6 | 3.2 | 0.00 | 0.00 | 0.00 | 86 | 1011.0 |
| 20260509060827 | 5 | 295 | 0.0 | 3.2 | 0.00 | 0.00 | 0.00 | 86 | 1011.0 |
| 20260509060327 | 5 | 276 | 1.6 | 3.2 | 0.00 | 0.00 | 0.00 | 86 | 1011.1 |
| 20260509055827 | 5 | 109 | 0.0 | 0.0 | 0.00 | 0.00 | 0.00 | 85 | 1011.2 |
| 20260509055327 | 5 | 270 | 3.2 | 3.2 | 0.00 | 0.00 | 0.00 | 86 | 1011.3 |
| 20260509054827 | 5 | 244 | 1.6 | 3.2 | 0.00 | 0.00 | 0.00 | 86 | 1011.3 |
| 20260509054327 | 5 | 254 | 1.6 | 3.2 | 0.00 | 0.00 | 0.00 | 85 | 1011.4 |
| 20260509053827 | 5 | 303 | 0.0 | 1.6 | 0.00 | 0.00 | 0.00 | 86 | 1011.3 |
| 20260509053327 | 5 | 288 | 1.6 | 3.2 | 0.00 | 0.00 | 0.00 | 86 | 1011.4 |
| 20260509052827 | 5 | 254 | 1.6 | 4.8 | 0.00 | 0.00 | 0.00 | 85 | 1011.5 |
| 20260509052327 | 5 | 258 | 1.6 | 3.2 | 0.00 | 0.00 | 0.00 | 85 | 1011.6 |
| 20260509051827 | 5 | 270 | 1.6 | 3.2 | 0.00 | 0.00 | 0.00 | 85 | 1011.5 |
| 20260509051327 | 5 | 221 | 1.6 | 3.2 | 0.00 | 0.00 | 0.00 | 85 | 1011.5 |
| 20260509050827 | 5 | 229 | 1.6 | 3.2 | 0.00 | 0.00 | 0.00 | 84 | 1011.5 |
| 20260509050327 | 5 | 265 | 0.0 | 1.6 | 0.00 | 0.00 | 0.00 | 84 | 1011.7 |
| 20260509045828 | 5 | 296 | 0.0 | 1.6 | 0.00 | 0.00 | 0.00 | 85 | 1011.7 |
| 20260509045327 | 5 | 275 | 1.6 | 1.6 | 0.00 | 0.00 | 0.00 | 86 | 1011.7 |
| 20260509044827 | 5 | 244 | 1.6 | 3.2 | 0.00 | 0.00 | 0.00 | 85 | 1011.6 |
| 20260509044327 | 5 | 260 | 1.6 | 3.2 | 0.00 | 0.00 | 0.00 | 85 | 1011.6 |
| 20260509043827 | 5 | 269 | 1.6 | 3.2 | 0.00 | 0.00 | 0.00 | 85 | 1011.6 |
| 20260509043327 | 5 | 250 | 3.2 | 4.8 | 0.00 | 0.00 | 0.00 | 85 | 1011.7 |
| 20260509042827 | 4 | 267 | 1.6 | 4.8 | 0.00 | 0.00 | 0.00 | 87 | 1011.8 |
| 20260509042327 | 4 | 251 | 1.6 | 3.2 | 0.00 | 0.00 | 0.00 | 86 | 1011.8 |
| 20260509041828 | 4 | 258 | 1.6 | 3.2 | 0.00 | 0.00 | 0.00 | 86 | 1011.8 |
| 20260509041327 | 4 | 242 | 1.6 | 3.2 | 0.00 | 0.00 | 0.00 | 86 | 1011.8 |
| 20260509040827 | 4 | 263 | 1.6 | 3.2 | 0.00 | 0.00 | 0.00 | 86 | 1011.8 |
| 20260509040326 | 4 | 254 | 3.2 | 4.8 | 0.00 | 0.00 | 0.00 | 87 | 1011.8 |
| 20260509035828 | 4 | 258 | 1.6 | 3.2 | 0.00 | 0.00 | 0.38 | 87 | 1011.7 |
| 20260509035328 | 3 | 178 | 1.6 | 4.8 | 0.00 | 0.00 | 0.38 | 87 | 1011.8 |
| 20260509034828 | 3 | 245 | 1.6 | 3.2 | 0.00 | 0.00 | 0.38 | 87 | 1011.8 |
| 20260509034328 | 3 | 244 | 1.6 | 3.2 | 0.00 | 0.00 | 0.38 | 88 | 1011.9 |
| 20260509033827 | 3 | 271 | 1.6 | 3.2 | 0.00 | 0.00 | 0.38 | 88 | 1012.0 |
| 20260509033327 | 3 | 277 | 0.0 | 1.6 | 0.00 | 0.00 | 0.38 | 88 | 1012.0 |
| 20260509032827 | 3 | 308 | 0.0 | 1.6 | 0.00 | 0.00 | 0.38 | 88 | 1012.0 |
| 20260509032329 | 3 | 290 | 1.6 | 1.6 | 0.00 | 0.00 | 0.38 | 89 | 1012.0 |
| 20260509031827 | 3 | 272 | 1.6 | 6.4 | 0.00 | 0.00 | 0.38 | 88 | 1012.1 |
| 20260509031327 | 3 | 334 | 0.0 | 1.6 | 0.00 | 0.00 | 0.38 | 88 | 1012.1 |
| 20260509030827 | 3 | 156 | 0.0 | 1.6 | 0.00 | 0.00 | 0.38 | 88 | 1012.2 |
| 20260509030327 | 3 | 274 | 0.0 | 1.6 | 0.00 | 0.00 | 0.38 | 88 | 1012.3 |
| 20260509025827 | 3 | 268 | 3.2 | 4.8 | 0.00 | 0.00 | 0.38 | 88 | 1012.2 |
| 20260509025327 | 3 | 273 | 3.2 | 4.8 | 0.00 | 0.00 | 0.38 | 88 | 1012.3 |
| 20260509024828 | 3 | 280 | 1.6 | 3.2 | 0.00 | 0.00 | 0.38 | 89 | 1012.3 |
| 20260509024327 | 3 | 277 | 1.6 | 3.2 | 0.00 | 0.00 | 0.38 | 89 | 1012.3 |
| 20260509023827 | 3 | 273 | 1.6 | 3.2 | 0.00 | 0.00 | 0.38 | 89 | 1012.4 |
| 20260509023327 | 3 | 304 | 1.6 | 3.2 | 0.00 | 0.00 | 0.38 | 89 | 1012.4 |
| 20260509022827 | 3 | 278 | 1.6 | 3.2 | 0.00 | 0.00 | 0.38 | 89 | 1012.4 |
| 20260509022327 | 4 | 268 | 1.6 | 3.2 | 0.00 | 0.00 | 0.38 | 89 | 1012.4 |
| 20260509021828 | 4 | 278 | 1.6 | 1.6 | 0.00 | 0.00 | 0.38 | 88 | 1012.5 |
| 20260509021327 | 4 | 272 | 1.6 | 3.2 | 0.00 | 0.00 | 0.38 | 88 | 1012.5 |
| 20260509020828 | 4 | 251 | 3.2 | 3.2 | 0.00 | 0.00 | 0.38 | 88 | 1012.5 |
| 20260509020327 | 4 | 255 | 1.6 | 3.2 | 0.00 | 0.00 | 0.38 | 87 | 1012.5 |
| 20260509015828 | 4 | 244 | 3.2 | 3.2 | 0.00 | 0.00 | 0.38 | 87 | 1012.5 |
| 20260509015327 | 5 | 252 | 3.2 | 4.8 | 0.00 | 0.00 | 0.38 | 86 | 1012.4 |
| 20260509014827 | 5 | 245 | 3.2 | 4.8 | 0.00 | 0.00 | 0.38 | 86 | 1012.3 |
| 20260509014327 | 5 | 257 | 3.2 | 3.2 | 0.00 | 0.00 | 0.38 | 86 | 1012.3 |
| 20260509013827 | 5 | 248 | 3.2 | 4.8 | 0.00 | 0.00 | 0.38 | 86 | 1012.2 |
| 20260509013327 | 5 | 254 | 3.2 | 4.8 | 0.00 | 0.00 | 0.38 | 85 | 1012.2 |
| 20260509012827 | 5 | 253 | 3.2 | 4.8 | 0.00 | 0.00 | 0.38 | 85 | 1012.1 |
| 20260509012328 | 5 | 248 | 3.2 | 4.8 | 0.00 | 0.00 | 0.38 | 85 | 1012.0 |
| 20260509011828 | 5 | 247 | 3.2 | 4.8 | 0.00 | 0.00 | 0.38 | 85 | 1012.0 |
| 20260509011327 | 5 | 245 | 3.2 | 4.8 | 0.00 | 0.00 | 0.38 | 84 | 1011.9 |
| 20260509010828 | 5 | 249 | 3.2 | 3.2 | 0.00 | 0.00 | 0.38 | 84 | 1011.9 |
| 20260509010327 | 5 | 242 | 3.2 | 4.8 | 0.00 | 0.00 | 0.38 | 84 | 1011.8 |
| 20260509005827 | 6 | 253 | 3.2 | 3.2 | 0.00 | 0.00 | 0.38 | 83 | 1011.7 |
| 20260509005327 | 6 | 245 | 3.2 | 4.8 | 0.00 | 0.00 | 0.38 | 83 | 1011.6 |
| 20260509004827 | 6 | 245 | 3.2 | 4.8 | 0.00 | 0.00 | 0.38 | 81 | 1011.6 |
| 20260509004327 | 6 | 238 | 3.2 | 4.8 | 0.00 | 0.00 | 0.38 | 79 | 1011.6 |
| 20260509003828 | 7 | 247 | 3.2 | 4.8 | 0.00 | 0.00 | 0.38 | 77 | 1011.5 |
| 20260509003327 | 7 | 249 | 3.2 | 3.2 | 0.00 | 0.00 | 0.38 | 76 | 1011.5 |
| 20260509002827 | 7 | 240 | 3.2 | 4.8 | 0.00 | 0.00 | 0.38 | 74 | 1011.4 |
| 20260509002327 | 7 | 248 | 3.2 | 4.8 | 0.00 | 0.00 | 0.38 | 72 | 1011.4 |
| 20260509001827 | 8 | 243 | 3.2 | 3.2 | 0.00 | 0.00 | 0.38 | 70 | 1011.4 |
| 20260509001328 | 8 | 239 | 3.2 | 4.8 | 0.00 | 0.00 | 0.38 | 67 | 1011.3 |
| 20260509000827 | 8 | 250 | 3.2 | 3.2 | 0.00 | 0.00 | 0.38 | 67 | 1011.3 |
| 20260509000327 | 9 | 238 | 3.2 | 3.2 | 0.00 | 0.00 | 0.38 | 64 | 1011.2 |
| 20260508235827 | 10 | 230 | 3.2 | 3.2 | 0.00 | 0.00 | 0.38 | 57 | 1011.2 |
| 20260508235327 | 10 | 240 | 1.6 | 1.6 | 0.00 | 0.00 | 0.38 | 56 | 1011.2 |
| 20260508234827 | 10 | 234 | 1.6 | 3.2 | 0.00 | 0.00 | 0.38 | 57 | 1011.1 |
| 20260508234327 | 10 | 238 | 3.2 | 3.2 | 0.00 | 0.00 | 0.38 | 58 | 1011.1 |
| 20260508233829 | 10 | 237 | 1.6 | 3.2 | 0.00 | 0.00 | 0.38 | 56 | 1011.1 |
| 20260508233327 | 10 | 218 | 1.6 | 1.6 | 0.00 | 0.00 | 0.38 | 54 | 1011.1 |
| 20260508232828 | 10 | 179 | 1.6 | 3.2 | 0.00 | 0.00 | 0.38 | 58 | 1011.1 |
| 20260508232329 | 11 | 224 | 1.6 | 3.2 | 0.00 | 0.00 | 0.38 | 55 | 1011.0 |
| 20260508231828 | 11 | 227 | 1.6 | 3.2 | 0.00 | 0.00 | 0.38 | 55 | 1011.1 |
| 20260508231327 | 11 | 145 | 0.0 | 1.6 | 0.00 | 0.00 | 0.38 | 54 | 1011.0 |
| 20260508230828 | 11 | 226 | 1.6 | 1.6 | 0.00 | 0.00 | 0.38 | 54 | 1011.0 |
| 20260508230328 | 11 | 229 | 0.0 | 1.6 | 0.00 | 0.00 | 0.38 | 53 | 1010.8 |
| 20260508225832 | 11 | 176 | 0.0 | 1.6 | 0.00 | 0.00 | 0.38 | 48 | 1010.8 |
| 20260508225327 | 11 | 279 | 1.6 | 3.2 | 0.00 | 0.00 | 0.38 | 49 | 1010.8 |
| 20260508224828 | 11 | 189 | 1.6 | 3.2 | 0.00 | 0.00 | 0.38 | 50 | 1011.2 |
| 20260508224327 | 12 | 12 | 0.0 | 1.6 | 0.00 | 0.00 | 0.38 | 50 | 1011.1 |
| 20260508223828 | 12 | 229 | 3.2 | 4.8 | 0.00 | 0.00 | 0.38 | 52 | 1011.0 |
| 20260508223327 | 12 | 242 | 1.6 | 3.2 | 0.00 | 0.00 | 0.38 | 49 | 1011.0 |
| 20260508222827 | 12 | 252 | 1.6 | 3.2 | 0.00 | 0.00 | 0.38 | 51 | 1011.0 |
| 20260508222327 | 12 | 260 | 3.2 | 6.4 | 0.00 | 0.00 | 0.38 | 46 | 1011.1 |
| 20260508221827 | 12 | 259 | 4.8 | 6.4 | 0.00 | 0.00 | 0.38 | 46 | 1011.2 |
| 20260508221328 | 13 | 246 | 3.2 | 4.8 | 0.00 | 0.00 | 0.38 | 46 | 1011.2 |
| 20260508220828 | 13 | 254 | 4.8 | 9.7 | 0.00 | 0.00 | 0.38 | 48 | 1010.8 |
| 20260508220327 | 13 | 234 | 3.2 | 4.8 | 0.00 | 0.00 | 0.38 | 45 | 1010.6 |
| 20260508215827 | 13 | 276 | 4.8 | 8.0 | 0.00 | 0.00 | 0.38 | 46 | 1010.6 |
| 20260508215328 | 13 | 261 | 3.2 | 4.8 | 0.00 | 0.00 | 0.38 | 45 | 1010.6 |
| 20260508214827 | 13 | 325 | 3.2 | 8.0 | 0.00 | 0.00 | 0.38 | 46 | 1010.6 |
| 20260508214327 | 13 | 334 | 3.2 | 4.8 | 0.00 | 0.00 | 0.38 | 48 | 1010.6 |
| 20260508213828 | 12 | 241 | 4.8 | 9.7 | 0.00 | 0.00 | 0.38 | 48 | 1010.8 |
| 20260508213328 | 13 | 271 | 3.2 | 6.4 | 0.00 | 0.00 | 0.38 | 52 | 1011.2 |